sensor_id;sensor_type;location;lat;lon;timestamp;temperature;humidity
75517;DHT22;64097;52.548;13.406;2023-04-15T06:01:42;13.90;78.60
75517;DHT22;64097;52.548;13.406;2023-04-15T06:04:08;14.00;78.60
75517;DHT22;64097;52.548;13.406;2023-04-15T06:06:34;14.00;78.50
75517;DHT22;64097;52.548;13.406;2023-04-15T06:08:59;14.00;78.50
75517;DHT22;64097;52.548;13.406;2023-04-15T06:11:25;14.00;78.60
75517;DHT22;64097;52.548;13.406;2023-04-15T06:13:51;14.10;78.50
75517;DHT22;64097;52.548;13.406;2023-04-15T06:16:17;14.20;78.60
75517;DHT22;64097;52.548;13.406;2023-04-15T06:18:43;14.20;78.40
75517;DHT22;64097;52.548;13.406;2023-04-15T06:21:09;14.20;78.10
75517;DHT22;64097;52.548;13.406;2023-04-15T06:23:35;14.20;78.00
75517;DHT22;64097;52.548;13.406;2023-04-15T06:26:01;14.30;78.20
75517;DHT22;64097;52.548;13.406;2023-04-15T06:28:27;14.30;77.80
75517;DHT22;64097;52.548;13.406;2023-04-15T06:30:54;14.30;77.80
75517;DHT22;64097;52.548;13.406;2023-04-15T06:33:20;14.30;77.70
75517;DHT22;64097;52.548;13.406;2023-04-15T06:35:45;14.40;77.40
75517;DHT22;64097;52.548;13.406;2023-04-15T06:38:12;14.40;77.30
75517;DHT22;64097;52.548;13.406;2023-04-15T06:40:38;14.40;77.10
75517;DHT22;64097;52.548;13.406;2023-04-15T06:43:04;14.40;77.00
75517;DHT22;64097;52.548;13.406;2023-04-15T06:45:30;14.40;77.40
75517;DHT22;64097;52.548;13.406;2023-04-15T06:47:56;14.50;77.70
75517;DHT22;64097;52.548;13.406;2023-04-15T06:50:22;14.50;77.70
75517;DHT22;64097;52.548;13.406;2023-04-15T06:52:48;14.60;77.60
75517;DHT22;64097;52.548;13.406;2023-04-15T06:55:14;14.60;77.50
75517;DHT22;64097;52.548;13.406;2023-04-15T06:57:39;14.70;77.30
75517;DHT22;64097;52.548;13.406;2023-04-15T07:00:06;14.70;77.00
75517;DHT22;64097;52.548;13.406;2023-04-15T07:02:32;14.70;76.60
75517;DHT22;64097;52.548;13.406;2023-04-15T07:04:58;14.70;76.40
75517;DHT22;64097;52.548;13.406;2023-04-15T07:07:23;14.70;76.00
75517;DHT22;64097;52.548;13.406;2023-04-15T07:09:50;14.70;76.20
75517;DHT22;64097;52.548;13.406;2023-04-15T07:12:18;14.70;76.10
75517;DHT22;64097;52.548;13.406;2023-04-15T07:14:44;14.70;77.00
75517;DHT22;64097;52.548;13.406;2023-04-15T07:17:09;14.80;75.80
75517;DHT22;64097;52.548;13.406;2023-04-15T07:19:36;14.80;75.50
75517;DHT22;64097;52.548;13.406;2023-04-15T07:22:02;14.80;75.70
75517;DHT22;64097;52.548;13.406;2023-04-15T07:24:28;14.80;75.70
75517;DHT22;64097;52.548;13.406;2023-04-15T07:26:54;14.80;75.70
75517;DHT22;64097;52.548;13.406;2023-04-15T07:29:24;14.90;75.60
75517;DHT22;64097;52.548;13.406;2023-04-15T07:31:50;14.90;75.60
75517;DHT22;64097;52.548;13.406;2023-04-15T07:34:16;14.90;75.40
75517;DHT22;64097;52.548;13.406;2023-04-15T07:36:42;14.90;76.00
75517;DHT22;64097;52.548;13.406;2023-04-15T07:39:07;14.90;75.60
75517;DHT22;64097;52.548;13.406;2023-04-15T07:41:33;15.00;75.90
75517;DHT22;64097;52.548;13.406;2023-04-15T07:43:59;15.10;75.80
75517;DHT22;64097;52.548;13.406;2023-04-15T07:46:25;15.10;74.60
75517;DHT22;64097;52.548;13.406;2023-04-15T07:48:52;15.10;74.80
75517;DHT22;64097;52.548;13.406;2023-04-15T07:51:19;15.10;75.20
75517;DHT22;64097;52.548;13.406;2023-04-15T07:53:46;15.10;74.90
75517;DHT22;64097;52.548;13.406;2023-04-15T07:56:12;15.10;74.70
75517;DHT22;64097;52.548;13.406;2023-04-15T07:58:37;15.10;74.70
75517;DHT22;64097;52.548;13.406;2023-04-15T08:01:03;15.10;74.60
75517;DHT22;64097;52.548;13.406;2023-04-15T08:03:29;15.10;74.40
75517;DHT22;64097;52.548;13.406;2023-04-15T08:05:56;15.10;74.70
75517;DHT22;64097;52.548;13.406;2023-04-15T08:08:22;15.10;74.80
75517;DHT22;64097;52.548;13.406;2023-04-15T08:10:48;15.10;74.60
75517;DHT22;64097;52.548;13.406;2023-04-15T08:13:14;15.10;74.50
75517;DHT22;64097;52.548;13.406;2023-04-15T08:15:40;15.10;74.40
75517;DHT22;64097;52.548;13.406;2023-04-15T08:18:06;15.10;74.60
75517;DHT22;64097;52.548;13.406;2023-04-15T08:20:32;15.10;74.40
75517;DHT22;64097;52.548;13.406;2023-04-15T08:22:58;15.10;74.60
75517;DHT22;64097;52.548;13.406;2023-04-15T08:25:24;15.10;73.50
75517;DHT22;64097;52.548;13.406;2023-04-15T08:27:50;15.10;74.10
75517;DHT22;64097;52.548;13.406;2023-04-15T08:30:16;15.10;74.30
75517;DHT22;64097;52.548;13.406;2023-04-15T08:32:44;15.10;74.10
75517;DHT22;64097;52.548;13.406;2023-04-15T08:35:13;15.10;74.10
75517;DHT22;64097;52.548;13.406;2023-04-15T08:37:40;15.10;74.10
75517;DHT22;64097;52.548;13.406;2023-04-15T08:40:06;15.10;74.60
75517;DHT22;64097;52.548;13.406;2023-04-15T08:42:40;15.10;74.30
75517;DHT22;64097;52.548;13.406;2023-04-15T08:45:08;15.20;74.10
75517;DHT22;64097;52.548;13.406;2023-04-15T08:47:37;15.20;73.50
75517;DHT22;64097;52.548;13.406;2023-04-15T08:50:04;15.20;73.60
75517;DHT22;64097;52.548;13.406;2023-04-15T08:52:33;15.20;73.50
75517;DHT22;64097;52.548;13.406;2023-04-15T08:55:01;15.20;73.50
75517;DHT22;64097;52.548;13.406;2023-04-15T08:57:28;15.30;73.00
75517;DHT22;64097;52.548;13.406;2023-04-15T08:59:57;15.30;73.00
75517;DHT22;64097;52.548;13.406;2023-04-15T09:02:24;15.30;73.10
75517;DHT22;64097;52.548;13.406;2023-04-15T09:04:52;15.30;73.10
75517;DHT22;64097;52.548;13.406;2023-04-15T09:07:17;15.30;73.10
75517;DHT22;64097;52.548;13.406;2023-04-15T09:09:43;15.30;72.80
75517;DHT22;64097;52.548;13.406;2023-04-15T09:12:10;15.30;72.60
75517;DHT22;64097;52.548;13.406;2023-04-15T09:14:38;15.30;72.40
75517;DHT22;64097;52.548;13.406;2023-04-15T09:17:05;15.30;72.30
75517;DHT22;64097;52.548;13.406;2023-04-15T09:19:31;15.30;72.80
75517;DHT22;64097;52.548;13.406;2023-04-15T09:21:59;15.40;73.00
75517;DHT22;64097;52.548;13.406;2023-04-15T09:24:32;15.40;73.00
75517;DHT22;64097;52.548;13.406;2023-04-15T09:26:58;15.40;72.10
75517;DHT22;64097;52.548;13.406;2023-04-15T09:29:24;15.40;72.60
75517;DHT22;64097;52.548;13.406;2023-04-15T09:31:51;15.40;72.40
75517;DHT22;64097;52.548;13.406;2023-04-15T09:34:17;15.40;72.10
75517;DHT22;64097;52.548;13.406;2023-04-15T09:39:12;15.40;71.70
75517;DHT22;64097;52.548;13.406;2023-04-15T09:41:38;15.50;72.30
75517;DHT22;64097;52.548;13.406;2023-04-15T09:44:04;15.50;72.20
75517;DHT22;64097;52.548;13.406;2023-04-15T09:46:44;15.50;72.00
75517;DHT22;64097;52.548;13.406;2023-04-15T09:49:10;15.50;71.50
75517;DHT22;64097;52.548;13.406;2023-04-15T09:51:37;15.50;71.70
75517;DHT22;64097;52.548;13.406;2023-04-15T09:54:03;15.60;71.70
75517;DHT22;64097;52.548;13.406;2023-04-15T09:56:34;15.50;71.80
75517;DHT22;64097;52.548;13.406;2023-04-15T09:59:06;15.50;71.80
75517;DHT22;64097;52.548;13.406;2023-04-15T10:01:33;15.60;72.00
75517;DHT22;64097;52.548;13.406;2023-04-15T10:04:02;15.60;71.60
75517;DHT22;64097;52.548;13.406;2023-04-15T10:06:29;15.60;71.60
75517;DHT22;64097;52.548;13.406;2023-04-15T10:08:56;15.60;71.80
75517;DHT22;64097;52.548;13.406;2023-04-15T10:11:23;15.50;71.70
75517;DHT22;64097;52.548;13.406;2023-04-15T10:13:50;15.60;71.30
75517;DHT22;64097;52.548;13.406;2023-04-15T10:16:20;15.50;71.30
75517;DHT22;64097;52.548;13.406;2023-04-15T10:18:55;15.50;71.70
75517;DHT22;64097;52.548;13.406;2023-04-15T10:21:21;15.50;71.50
75517;DHT22;64097;52.548;13.406;2023-04-15T10:23:48;15.50;71.40
75517;DHT22;64097;52.548;13.406;2023-04-15T10:26:15;15.50;71.20
75517;DHT22;64097;52.548;13.406;2023-04-15T10:28:42;15.50;71.50
75517;DHT22;64097;52.548;13.406;2023-04-15T10:31:10;15.50;71.70
75517;DHT22;64097;52.548;13.406;2023-04-15T10:33:37;15.50;71.70
75517;DHT22;64097;52.548;13.406;2023-04-15T10:36:04;15.50;71.90
75517;DHT22;64097;52.548;13.406;2023-04-15T10:38:38;15.50;72.30
75517;DHT22;64097;52.548;13.406;2023-04-15T10:41:22;15.50;72.10
75517;DHT22;64097;52.548;13.406;2023-04-15T10:44:02;15.50;72.50
75517;DHT22;64097;52.548;13.406;2023-04-15T10:46:38;15.50;72.70
75517;DHT22;64097;52.548;13.406;2023-04-15T10:51:42;15.50;72.50
75517;DHT22;64097;52.548;13.406;2023-04-15T10:57:14;15.50;72.20
75517;DHT22;64097;52.548;13.406;2023-04-15T10:59:59;15.50;72.40
75517;DHT22;64097;52.548;13.406;2023-04-15T11:02:59;15.50;72.40
75517;DHT22;64097;52.548;13.406;2023-04-15T11:08:08;15.60;72.80
75517;DHT22;64097;52.548;13.406;2023-04-15T11:13:06;15.60;72.80
75517;DHT22;64097;52.548;13.406;2023-04-15T11:15:45;15.60;72.80
75517;DHT22;64097;52.548;13.406;2023-04-15T11:18:12;15.60;72.80
75517;DHT22;64097;52.548;13.406;2023-04-15T11:20:39;15.60;72.90
75517;DHT22;64097;52.548;13.406;2023-04-15T11:23:05;15.60;72.90
75517;DHT22;64097;52.548;13.406;2023-04-15T11:25:32;15.60;72.80
75517;DHT22;64097;52.548;13.406;2023-04-15T11:27:59;15.60;72.70
75517;DHT22;64097;52.548;13.406;2023-04-15T11:30:28;15.60;72.70
75517;DHT22;64097;52.548;13.406;2023-04-15T11:33:05;15.60;73.20
75517;DHT22;64097;52.548;13.406;2023-04-15T11:35:31;15.60;73.30
75517;DHT22;64097;52.548;13.406;2023-04-15T11:37:57;15.60;72.70
75517;DHT22;64097;52.548;13.406;2023-04-15T11:40:28;15.50;72.50
75517;DHT22;64097;52.548;13.406;2023-04-15T11:43:14;15.50;72.70
75517;DHT22;64097;52.548;13.406;2023-04-15T11:45:55;15.50;73.00
75517;DHT22;64097;52.548;13.406;2023-04-15T11:48:29;15.60;73.30
75517;DHT22;64097;52.548;13.406;2023-04-15T11:51:00;15.50;73.00
75517;DHT22;64097;52.548;13.406;2023-04-15T11:53:46;15.50;73.40
75517;DHT22;64097;52.548;13.406;2023-04-15T11:56:23;15.60;73.10
75517;DHT22;64097;52.548;13.406;2023-04-15T11:58:54;15.60;74.20
75517;DHT22;64097;52.548;13.406;2023-04-15T12:01:53;15.60;73.40
75517;DHT22;64097;52.548;13.406;2023-04-15T12:04:19;15.60;73.60
75517;DHT22;64097;52.548;13.406;2023-04-15T12:06:47;15.60;73.60
75517;DHT22;64097;52.548;13.406;2023-04-15T12:09:17;15.60;73.50
75517;DHT22;64097;52.548;13.406;2023-04-15T12:11:50;15.60;74.10
75517;DHT22;64097;52.548;13.406;2023-04-15T12:16:53;15.60;75.10
75517;DHT22;64097;52.548;13.406;2023-04-15T12:19:25;15.50;76.00
75517;DHT22;64097;52.548;13.406;2023-04-15T12:21:56;15.50;76.50
75517;DHT22;64097;52.548;13.406;2023-04-15T12:24:23;15.50;76.80
75517;DHT22;64097;52.548;13.406;2023-04-15T12:26:53;15.50;76.60
75517;DHT22;64097;52.548;13.406;2023-04-15T12:29:25;15.50;77.00
75517;DHT22;64097;52.548;13.406;2023-04-15T12:31:56;15.50;76.80
75517;DHT22;64097;52.548;13.406;2023-04-15T12:34:32;15.50;76.90
75517;DHT22;64097;52.548;13.406;2023-04-15T12:37:00;15.50;77.00
75517;DHT22;64097;52.548;13.406;2023-04-15T12:39:28;15.50;76.70
75517;DHT22;64097;52.548;13.406;2023-04-15T12:41:55;15.50;76.30
75517;DHT22;64097;52.548;13.406;2023-04-15T12:44:23;15.50;76.10
75517;DHT22;64097;52.548;13.406;2023-04-15T12:46:50;15.50;76.00
75517;DHT22;64097;52.548;13.406;2023-04-15T12:49:17;15.50;76.10
75517;DHT22;64097;52.548;13.406;2023-04-15T12:51:45;15.50;76.00
75517;DHT22;64097;52.548;13.406;2023-04-15T12:54:11;15.50;75.80
75517;DHT22;64097;52.548;13.406;2023-04-15T12:56:37;15.50;75.90
75517;DHT22;64097;52.548;13.406;2023-04-15T12:59:02;15.50;76.00
75517;DHT22;64097;52.548;13.406;2023-04-15T13:01:28;15.60;76.10
75517;DHT22;64097;52.548;13.406;2023-04-15T13:03:54;15.60;75.90
75517;DHT22;64097;52.548;13.406;2023-04-15T13:06:20;15.60;75.60
75517;DHT22;64097;52.548;13.406;2023-04-15T13:08:46;15.70;75.60
75517;DHT22;64097;52.548;13.406;2023-04-15T13:11:12;15.70;75.50
75517;DHT22;64097;52.548;13.406;2023-04-15T13:13:38;15.70;75.30
75517;DHT22;64097;52.548;13.406;2023-04-15T13:16:04;15.70;74.90
75517;DHT22;64097;52.548;13.406;2023-04-15T13:18:29;15.70;74.70
75517;DHT22;64097;52.548;13.406;2023-04-15T13:20:55;15.70;74.90
75517;DHT22;64097;52.548;13.406;2023-04-15T13:23:21;15.70;74.70
75517;DHT22;64097;52.548;13.406;2023-04-15T13:25:47;15.70;74.70
75517;DHT22;64097;52.548;13.406;2023-04-15T13:28:13;15.70;74.70
75517;DHT22;64097;52.548;13.406;2023-04-15T13:30:39;15.70;74.80
75517;DHT22;64097;52.548;13.406;2023-04-15T13:33:05;15.70;74.30
75517;DHT22;64097;52.548;13.406;2023-04-15T13:35:33;15.70;74.70
75517;DHT22;64097;52.548;13.406;2023-04-15T13:37:59;15.70;74.60
75517;DHT22;64097;52.548;13.406;2023-04-15T13:40:25;15.80;74.80
75517;DHT22;64097;52.548;13.406;2023-04-15T13:42:51;15.80;74.90
75517;DHT22;64097;52.548;13.406;2023-04-15T13:45:17;15.80;74.70
75517;DHT22;64097;52.548;13.406;2023-04-15T13:47:43;15.80;73.90
75517;DHT22;64097;52.548;13.406;2023-04-15T13:50:09;15.90;73.80
75517;DHT22;64097;52.548;13.406;2023-04-15T13:52:35;15.90;74.50
75517;DHT22;64097;52.548;13.406;2023-04-15T13:55:02;15.90;73.70
75517;DHT22;64097;52.548;13.406;2023-04-15T13:57:27;15.90;73.50
75517;DHT22;64097;52.548;13.406;2023-04-15T13:59:53;15.90;73.60
